createdAt,value
2022-10-31T00:02:13.975Z,9.30
2022-10-31T00:04:59.607Z,6.75
2022-10-31T00:07:45.092Z,7.30
2022-10-31T00:10:30.426Z,6.57
2022-10-31T00:13:16.523Z,8.05
2022-10-31T00:16:01.905Z,5.38
2022-10-31T00:18:55.931Z,7.32
2022-10-31T00:21:41.566Z,4.82
2022-10-31T00:24:27.245Z,5.43
2022-10-31T00:27:12.783Z,6.43
2022-10-31T00:29:58.305Z,4.40
2022-10-31T00:32:43.670Z,6.05
2022-10-31T00:35:29.306Z,4.50
2022-10-31T00:38:14.746Z,3.50
2022-10-31T00:41:00.439Z,5.15
2022-10-31T00:43:46.323Z,7.82
2022-10-31T00:46:31.814Z,5.95
2022-10-31T00:49:17.360Z,6.53
2022-10-31T00:52:02.918Z,7.18
2022-10-31T00:54:48.342Z,5.32
2022-10-31T00:57:34.065Z,8.38
2022-10-31T01:00:20.462Z,5.43
2022-10-31T01:03:06.799Z,9.52
2022-10-31T01:06:10.611Z,5.15
2022-10-31T01:08:56.176Z,8.43
2022-10-31T01:11:41.657Z,5.82
2022-10-31T01:14:28.339Z,7.43
2022-10-31T01:17:16.534Z,7.28
2022-10-31T01:20:06.717Z,5.07
2022-10-31T01:22:52.389Z,5.38
2022-10-31T01:25:37.941Z,4.15
2022-10-31T01:28:23.419Z,6.47
2022-10-31T01:31:09.607Z,3.40
2022-10-31T01:33:55.415Z,6.50
2022-10-31T01:36:41.400Z,5.65
2022-10-31T01:39:26.621Z,5.13
2022-10-31T01:42:19.350Z,7.00
2022-10-31T01:45:06.287Z,7.20
2022-10-31T01:47:52.117Z,7.50
2022-10-31T01:50:39.255Z,6.22
2022-10-31T01:53:26.960Z,8.45
2022-10-31T01:56:14.734Z,6.85
2022-10-31T01:59:02.815Z,5.07
2022-10-31T02:01:50.345Z,4.55
2022-10-31T02:04:36.463Z,6.53
2022-10-31T02:07:31.644Z,7.85
2022-10-31T02:10:19.027Z,4.00
2022-10-31T02:13:06.651Z,5.88
2022-10-31T02:15:59.133Z,6.07
2022-10-31T02:18:44.573Z,6.25
2022-10-31T02:21:30.184Z,5.70
2022-10-31T02:24:30.793Z,4.43
2022-10-31T02:27:43.907Z,6.43
2022-10-31T02:30:42.358Z,4.60
2022-10-31T02:33:43.228Z,6.00
2022-10-31T02:36:40.558Z,5.47
2022-10-31T02:39:37.127Z,6.00
2022-10-31T02:42:35.032Z,6.15
2022-10-31T02:45:52.393Z,5.93
2022-10-31T02:48:41.917Z,5.80
2022-10-31T02:51:28.245Z,6.20
2022-10-31T02:54:25.674Z,6.13
2022-10-31T03:00:06.839Z,3.65
2022-10-31T03:03:28.398Z,8.00
2022-10-31T03:06:26.509Z,5.70
2022-10-31T03:09:20.715Z,5.88
2022-10-31T03:12:13.894Z,5.60
2022-10-31T03:15:23.937Z,5.78
2022-10-31T03:18:28.588Z,5.53
2022-10-31T03:21:21.857Z,6.28
2022-10-31T03:24:09.455Z,6.35
2022-10-31T03:26:57.550Z,7.63
2022-10-31T03:29:44.719Z,5.35
2022-10-31T03:32:39.393Z,6.07
2022-10-31T03:35:29.315Z,5.57
2022-10-31T03:38:16.142Z,7.28
2022-10-31T03:41:04.700Z,8.95
2022-10-31T03:43:59.605Z,7.65
2022-10-31T03:46:45.718Z,7.15
2022-10-31T03:49:32.363Z,6.40
2022-10-31T03:52:36.546Z,6.68
2022-10-31T03:55:33.762Z,7.15
2022-10-31T03:58:29.499Z,6.40
2022-10-31T04:01:19.191Z,5.32
2022-10-31T04:04:07.637Z,4.30
2022-10-31T04:06:55.508Z,5.97
2022-10-31T04:09:45.090Z,5.95
2022-10-31T04:12:33.736Z,4.70
2022-10-31T04:15:43.515Z,6.43
2022-10-31T04:18:29.186Z,5.13
2022-10-31T04:21:14.746Z,6.88
2022-10-31T04:24:00.258Z,4.93
2022-10-31T04:26:49.008Z,5.80
2022-10-31T04:29:34.967Z,4.32
2022-10-31T04:32:20.445Z,5.35
2022-10-31T04:35:06.328Z,13.30
2022-10-31T04:37:51.739Z,5.15
2022-10-31T04:40:37.762Z,7.82
2022-10-31T04:43:49.464Z,6.93
2022-10-31T04:46:35.242Z,7.00
2022-10-31T04:49:22.247Z,4.07
2022-10-31T04:52:09.026Z,9.20
2022-10-31T04:54:54.496Z,5.28
2022-10-31T04:58:09.433Z,5.35
2022-10-31T05:00:57.012Z,5.50
2022-10-31T05:03:42.747Z,8.75
2022-10-31T05:06:28.086Z,5.32
2022-10-31T05:09:13.648Z,7.07
2022-10-31T05:11:59.371Z,9.82
2022-10-31T05:15:04.569Z,7.43
2022-10-31T05:18:27.638Z,5.20
2022-10-31T05:21:33.352Z,5.80
2022-10-31T05:24:22.702Z,6.38
2022-10-31T05:27:08.125Z,4.78
2022-10-31T05:29:53.680Z,7.18
2022-10-31T05:32:48.053Z,7.53
2022-10-31T05:36:02.674Z,11.18
2022-10-31T05:39:03.471Z,5.68
2022-10-31T05:41:59.573Z,6.75
2022-10-31T05:44:46.081Z,5.88
2022-10-31T05:47:58.707Z,5.97
2022-10-31T05:51:07.203Z,5.28
2022-10-31T05:53:52.750Z,4.95
2022-10-31T05:56:38.805Z,5.53
2022-10-31T05:59:24.256Z,7.63
2022-10-31T06:02:09.745Z,8.13
2022-10-31T06:05:33.769Z,6.10
2022-10-31T06:08:19.746Z,3.85
2022-10-31T06:11:05.985Z,6.70
2022-10-31T06:14:10.201Z,7.65
2022-10-31T06:17:04.135Z,7.22
2022-10-31T06:20:11.244Z,5.25
2022-10-31T06:23:08.740Z,4.32
2022-10-31T06:25:54.263Z,4.25
2022-10-31T06:28:40.072Z,5.38
2022-10-31T06:31:36.558Z,4.90
2022-10-31T06:34:22.149Z,6.38
2022-10-31T06:37:09.340Z,5.50
2022-10-31T06:39:58.292Z,5.73
2022-10-31T06:42:43.852Z,5.50
2022-10-31T06:45:29.725Z,8.45
2022-10-31T06:48:38.532Z,4.18
2022-10-31T06:51:39.120Z,6.72
2022-10-31T06:54:24.817Z,6.82
2022-10-31T06:57:10.350Z,6.78
2022-10-31T06:59:57.362Z,5.32
2022-10-31T07:03:08.231Z,6.85
2022-10-31T07:05:57.593Z,7.80
2022-10-31T07:08:43.243Z,6.57
2022-10-31T07:11:29.038Z,5.75
2022-10-31T07:14:15.827Z,4.82
2022-10-31T07:17:01.511Z,6.00
2022-10-31T07:19:59.548Z,7.78
2022-10-31T07:22:50.418Z,6.07
2022-10-31T07:25:37.156Z,6.97
2022-10-31T07:28:33.947Z,5.70
2022-10-31T07:31:21.059Z,6.95
2022-10-31T07:34:06.636Z,6.78
2022-10-31T07:37:10.974Z,5.82
2022-10-31T07:39:56.629Z,5.38
2022-10-31T07:42:45.019Z,7.20
2022-10-31T07:45:52.730Z,9.73
2022-10-31T07:48:57.134Z,8.52
2022-10-31T07:52:14.321Z,8.32
2022-10-31T07:55:29.732Z,7.68
2022-10-31T07:58:18.112Z,6.47
2022-10-31T08:01:04.373Z,6.15
2022-10-31T08:03:58.807Z,7.75
2022-10-31T08:07:22.880Z,5.65
2022-10-31T08:10:14.666Z,7.32
2022-10-31T08:13:03.168Z,7.05
2022-10-31T08:15:52.695Z,6.53
2022-10-31T08:18:42.517Z,5.80
2022-10-31T08:21:31.991Z,7.85
2022-10-31T08:24:17.612Z,4.88
2022-10-31T08:27:03.089Z,7.13
2022-10-31T08:29:48.425Z,5.30
2022-10-31T08:32:34.011Z,8.40
2022-10-31T08:35:38.669Z,6.68
2022-10-31T08:38:44.366Z,7.95
2022-10-31T08:41:31.900Z,7.13
2022-10-31T08:44:18.915Z,7.63
2022-10-31T08:47:04.708Z,5.60
2022-10-31T08:49:52.656Z,7.57
2022-10-31T08:53:03.473Z,4.72
2022-10-31T08:55:47.227Z,7.47
2022-10-31T08:58:43.550Z,5.78
2022-10-31T09:01:30.112Z,6.22
2022-10-31T09:04:15.637Z,7.97
2022-10-31T09:07:20.103Z,9.20
2022-10-31T09:10:08.337Z,11.90
2022-10-31T09:13:02.542Z,7.13
2022-10-31T09:16:08.277Z,7.20
2022-10-31T09:18:54.501Z,6.70
2022-10-31T09:21:40.011Z,8.75
2022-10-31T09:24:25.358Z,9.23
2022-10-31T09:27:12.034Z,8.38
2022-10-31T09:30:00.238Z,7.40
2022-10-31T09:32:45.786Z,8.35
2022-10-31T09:35:31.578Z,6.95
2022-10-31T09:38:21.153Z,10.75
2022-10-31T09:44:33.896Z,7.35
2022-10-31T09:47:32.065Z,7.13
2022-10-31T09:50:48.561Z,8.93
2022-10-31T09:54:03.052Z,8.40
2022-10-31T09:56:49.562Z,10.38
2022-10-31T09:59:38.351Z,7.40
2022-10-31T10:02:38.681Z,9.95
2022-10-31T10:05:38.314Z,8.15
2022-10-31T10:08:30.949Z,9.80
2022-10-31T10:11:51.681Z,8.18
2022-10-31T10:14:57.739Z,7.00
2022-10-31T10:18:04.253Z,10.48
2022-10-31T10:21:08.494Z,8.75
2022-10-31T10:24:03.114Z,10.50
2022-10-31T10:27:20.761Z,7.47
2022-10-31T10:30:27.981Z,8.18
2022-10-31T10:33:28.634Z,13.52
2022-10-31T10:36:35.634Z,8.70
2022-10-31T10:39:33.501Z,9.35
2022-10-31T10:42:37.467Z,7.90
2022-10-31T10:45:41.530Z,7.25
2022-10-31T10:48:45.497Z,9.18
2022-10-31T10:52:02.685Z,13.95
2022-10-31T10:55:13.762Z,13.02
2022-10-31T10:58:01.617Z,11.40
2022-10-31T11:00:48.794Z,8.52
2022-10-31T11:03:36.547Z,10.38
2022-10-31T11:06:27.083Z,10.20
2022-10-31T11:09:12.967Z,12.38
2022-10-31T11:11:59.624Z,8.57
2022-10-31T11:14:52.530Z,19.88
2022-10-31T11:17:41.319Z,10.90
2022-10-31T11:20:36.940Z,15.38
2022-10-31T11:23:25.029Z,10.25
2022-10-31T11:26:21.717Z,8.68
2022-10-31T11:29:14.792Z,10.20
2022-10-31T11:32:01.750Z,9.15
2022-10-31T11:34:51.735Z,10.52
2022-10-31T11:37:44.508Z,10.80
2022-10-31T11:40:30.316Z,10.00
2022-10-31T11:43:19.261Z,9.05
2022-10-31T11:46:12.990Z,8.18
2022-10-31T11:48:58.452Z,11.48
2022-10-31T11:51:48.418Z,8.45
2022-10-31T11:54:51.608Z,9.38
2022-10-31T11:57:48.383Z,8.77
2022-10-31T12:00:38.234Z,13.40
2022-10-31T12:06:21.736Z,10.68
2022-10-31T12:09:19.624Z,12.05
2022-10-31T12:12:23.925Z,9.05
2022-10-31T12:15:09.353Z,8.45
2022-10-31T12:18:16.198Z,6.95
2022-10-31T12:21:13.748Z,9.35
2022-10-31T12:24:19.609Z,9.00
2022-10-31T12:27:32.260Z,9.48
2022-10-31T12:30:43.873Z,8.98
2022-10-31T12:33:38.011Z,6.05
2022-10-31T12:36:42.527Z,8.68
2022-10-31T12:40:09.959Z,5.75
2022-10-31T12:43:23.311Z,7.53
2022-10-31T12:46:56.177Z,8.50
2022-10-31T12:49:56.763Z,8.40
2022-10-31T12:52:55.885Z,9.82
2022-10-31T12:55:44.955Z,11.75
2022-10-31T12:58:34.079Z,8.98
2022-10-31T13:01:19.760Z,8.02
2022-10-31T13:04:05.083Z,8.80
2022-10-31T13:06:56.826Z,7.07
2022-10-31T13:09:51.983Z,8.27
2022-10-31T13:12:38.044Z,7.70
2022-10-31T13:15:32.323Z,7.57
2022-10-31T13:18:52.724Z,8.80
2022-10-31T13:21:42.759Z,8.57
2022-10-31T13:24:56.760Z,11.13
2022-10-31T13:27:45.486Z,11.13
2022-10-31T13:30:37.335Z,8.98
2022-10-31T13:33:29.709Z,12.40
2022-10-31T13:36:36.718Z,9.05
2022-10-31T13:39:50.237Z,10.10
2022-10-31T13:43:20.512Z,11.52
2022-10-31T13:46:35.518Z,10.70
2022-10-31T13:49:31.661Z,10.07
2022-10-31T13:52:25.435Z,11.20
2022-10-31T13:55:38.894Z,9.80
2022-10-31T13:58:27.985Z,7.78
2022-10-31T14:01:23.435Z,9.48
2022-10-31T14:04:22.327Z,10.68
2022-10-31T14:07:18.657Z,11.13
2022-10-31T14:10:23.834Z,9.20
2022-10-31T14:13:21.762Z,9.13
2022-10-31T14:16:21.771Z,9.02
2022-10-31T14:19:15.751Z,10.05
2022-10-31T14:22:01.145Z,9.23
2022-10-31T14:24:46.742Z,10.32
2022-10-31T14:27:36.755Z,9.45
2022-10-31T14:30:25.349Z,8.63
2022-10-31T14:33:19.267Z,9.57
2022-10-31T14:36:14.761Z,9.50
2022-10-31T14:39:12.900Z,8.45
2022-10-31T14:42:36.138Z,10.93
2022-10-31T14:45:33.899Z,9.90
2022-10-31T14:48:34.526Z,10.50
2022-10-31T14:51:27.231Z,10.13
2022-10-31T14:54:20.716Z,8.90
2022-10-31T14:57:14.702Z,10.30
2022-10-31T15:00:06.101Z,9.65
2022-10-31T15:03:13.276Z,8.10
2022-10-31T15:06:06.069Z,8.77
2022-10-31T15:08:54.017Z,9.60
2022-10-31T15:11:40.088Z,8.13
2022-10-31T15:14:29.811Z,8.88
2022-10-31T15:17:16.484Z,12.00
2022-10-31T15:20:04.312Z,10.15
2022-10-31T15:22:50.454Z,12.00
2022-10-31T15:25:37.076Z,12.00
2022-10-31T15:28:25.144Z,11.10
2022-10-31T15:31:17.531Z,9.32
2022-10-31T15:34:27.348Z,16.63
2022-10-31T15:37:18.566Z,47.00
2022-10-31T15:40:15.679Z,28.75
2022-10-31T15:43:04.942Z,20.95
2022-10-31T15:45:50.377Z,16.67
2022-10-31T15:48:36.277Z,12.90
2022-10-31T15:51:32.285Z,19.27
2022-10-31T15:54:18.284Z,15.98
2022-10-31T15:57:04.821Z,26.23
2022-10-31T15:59:50.889Z,17.83
2022-10-31T16:02:36.741Z,16.23
2022-10-31T16:05:22.465Z,14.52
2022-10-31T16:08:30.845Z,14.32
2022-10-31T16:11:24.032Z,14.68
2022-10-31T16:14:12.506Z,13.10
2022-10-31T16:16:59.740Z,11.85
2022-10-31T16:20:01.469Z,12.40
2022-10-31T16:22:50.973Z,13.63
2022-10-31T16:25:40.257Z,14.30
2022-10-31T16:28:31.950Z,11.93
2022-10-31T16:31:47.167Z,13.80
2022-10-31T16:34:32.829Z,11.65
2022-10-31T16:37:18.509Z,12.52
2022-10-31T16:40:04.446Z,15.00
2022-10-31T16:42:50.207Z,12.90
2022-10-31T16:45:35.932Z,13.23
2022-10-31T16:48:24.160Z,17.98
2022-10-31T16:51:09.830Z,21.58
2022-10-31T16:53:55.769Z,16.30
2022-10-31T16:56:43.014Z,16.65
2022-10-31T16:59:30.409Z,15.25
2022-10-31T17:02:17.539Z,16.38
2022-10-31T17:05:02.853Z,15.45
2022-10-31T17:07:49.324Z,14.35
2022-10-31T17:10:36.102Z,12.38
2022-10-31T17:13:24.117Z,15.57
2022-10-31T17:16:09.986Z,22.38
2022-10-31T17:18:55.721Z,17.80
2022-10-31T17:21:41.891Z,18.42
2022-10-31T17:24:27.918Z,21.90
2022-10-31T17:27:13.099Z,16.25
2022-10-31T17:29:58.636Z,17.05
2022-10-31T17:32:45.497Z,14.00
2022-10-31T17:35:31.309Z,13.23
2022-10-31T17:38:17.152Z,16.23
2022-10-31T17:41:10.007Z,20.23
2022-10-31T17:43:58.102Z,19.38
2022-10-31T17:46:44.308Z,17.08
2022-10-31T17:49:29.849Z,13.13
2022-10-31T17:52:15.245Z,13.18
2022-10-31T17:55:00.796Z,14.00
2022-10-31T17:57:46.685Z,13.95
2022-10-31T18:00:33.160Z,11.60
2022-10-31T18:03:18.961Z,13.15
2022-10-31T18:06:04.850Z,12.38
2022-10-31T18:08:50.590Z,12.80
2022-10-31T18:11:36.082Z,13.77
2022-10-31T18:14:21.711Z,17.38
2022-10-31T18:17:07.729Z,13.85
2022-10-31T18:19:53.403Z,11.43
2022-10-31T18:22:39.162Z,12.50
2022-10-31T18:25:24.992Z,11.00
2022-10-31T18:28:11.108Z,13.35
2022-10-31T18:31:00.266Z,14.05
2022-10-31T18:33:46.424Z,14.45
2022-10-31T18:36:32.125Z,15.05
2022-10-31T18:39:17.893Z,11.02
2022-10-31T18:42:04.015Z,11.20
2022-10-31T18:44:49.278Z,11.32
2022-10-31T18:47:35.074Z,11.63
2022-10-31T18:50:20.923Z,11.73
2022-10-31T18:53:06.420Z,14.10
2022-10-31T18:55:51.960Z,11.82
2022-10-31T18:58:37.674Z,10.45
2022-10-31T19:01:23.747Z,11.40
2022-10-31T19:04:11.092Z,11.40
2022-10-31T19:06:56.847Z,14.55
2022-10-31T19:09:42.196Z,11.23
2022-10-31T19:12:27.734Z,9.18
2022-10-31T19:15:13.620Z,10.57
2022-10-31T19:17:58.897Z,11.15
2022-10-31T19:20:44.293Z,10.32
2022-10-31T19:23:29.940Z,13.43
2022-10-31T19:26:15.470Z,17.55
2022-10-31T19:29:01.541Z,15.02
2022-10-31T19:31:48.228Z,17.17
2022-10-31T19:34:33.427Z,18.63
2022-10-31T19:37:19.268Z,17.75
2022-10-31T19:40:09.449Z,14.45
2022-10-31T19:42:55.158Z,14.98
2022-10-31T19:45:40.638Z,14.50
2022-10-31T19:48:26.922Z,16.92
2022-10-31T19:51:14.855Z,18.00
2022-10-31T19:54:00.700Z,12.07
2022-10-31T19:56:46.235Z,10.77
2022-10-31T19:59:35.171Z,10.63
2022-10-31T20:02:24.626Z,13.38
2022-10-31T20:05:09.972Z,10.82
2022-10-31T20:07:56.722Z,9.65
2022-10-31T20:10:53.584Z,11.52
2022-10-31T20:13:38.968Z,11.07
2022-10-31T20:16:25.747Z,10.60
2022-10-31T20:19:11.816Z,8.85
2022-10-31T20:21:57.398Z,9.50
2022-10-31T20:24:42.967Z,8.85
2022-10-31T20:27:28.825Z,9.82
2022-10-31T20:30:14.482Z,9.27
2022-10-31T20:33:00.212Z,10.52
2022-10-31T20:35:45.683Z,10.05
2022-10-31T20:38:31.722Z,8.75
2022-10-31T20:41:17.732Z,10.63
2022-10-31T20:44:03.341Z,10.80
2022-10-31T20:46:49.102Z,9.05
2022-10-31T20:49:34.611Z,6.88
2022-10-31T20:52:20.424Z,9.45
2022-10-31T20:55:07.227Z,10.68
2022-10-31T20:57:52.874Z,9.02
2022-10-31T21:00:38.442Z,6.63
2022-10-31T21:03:24.938Z,9.15
2022-10-31T21:06:11.510Z,7.55
2022-10-31T21:08:58.200Z,10.73
2022-10-31T21:11:46.085Z,10.63
2022-10-31T21:14:31.499Z,7.90
2022-10-31T21:17:17.240Z,9.82
2022-10-31T21:20:04.716Z,7.60
2022-10-31T21:22:50.736Z,7.03
2022-10-31T21:25:41.846Z,7.88
2022-10-31T21:28:27.628Z,7.32
2022-10-31T21:31:16.056Z,6.72
2022-10-31T21:34:01.847Z,10.02
2022-10-31T21:36:47.229Z,9.18
2022-10-31T21:39:32.756Z,5.93
2022-10-31T21:42:21.633Z,7.88
2022-10-31T21:45:07.899Z,7.50
2022-10-31T21:47:53.794Z,6.60
2022-10-31T21:50:39.485Z,7.50
2022-10-31T21:53:43.902Z,5.82
2022-10-31T21:56:29.901Z,7.78
2022-10-31T21:59:15.809Z,8.18
2022-10-31T22:02:01.564Z,9.70
2022-10-31T22:04:50.153Z,9.75
2022-10-31T22:07:35.590Z,7.85
2022-10-31T22:10:21.106Z,8.20
2022-10-31T22:13:06.534Z,9.15
2022-10-31T22:15:52.279Z,5.70
2022-10-31T22:18:39.071Z,8.65
2022-10-31T22:21:27.771Z,7.10
2022-10-31T22:24:14.277Z,6.88
2022-10-31T22:27:00.245Z,6.55
2022-10-31T22:29:46.183Z,8.55
2022-10-31T22:32:31.725Z,7.45
2022-10-31T22:35:17.244Z,7.78
2022-10-31T22:38:02.738Z,6.97
2022-10-31T22:40:48.306Z,6.55
2022-10-31T22:43:34.052Z,8.88
2022-10-31T22:46:28.867Z,7.88
2022-10-31T22:49:15.515Z,7.35
2022-10-31T22:52:03.418Z,5.72
2022-10-31T22:54:48.934Z,8.75
2022-10-31T22:57:34.512Z,6.07
2022-10-31T23:00:20.154Z,7.20
2022-10-31T23:03:06.025Z,7.50
2022-10-31T23:05:56.811Z,7.80
2022-10-31T23:08:43.405Z,7.32
2022-10-31T23:11:34.844Z,6.32
2022-10-31T23:14:21.293Z,7.10
2022-10-31T23:17:06.846Z,6.82
2022-10-31T23:19:52.316Z,5.43
2022-10-31T23:22:37.709Z,7.10
2022-10-31T23:25:41.735Z,7.07
2022-10-31T23:28:27.892Z,7.40
2022-10-31T23:31:13.511Z,6.20
2022-10-31T23:33:59.166Z,6.63
2022-10-31T23:36:44.591Z,5.25
2022-10-31T23:39:30.183Z,6.55
2022-10-31T23:42:16.225Z,6.05
2022-10-31T23:45:01.710Z,5.38
2022-10-31T23:47:47.199Z,6.97
2022-10-31T23:50:32.741Z,8.50
2022-10-31T23:53:18.253Z,10.57
2022-10-31T23:56:03.785Z,9.85
2022-10-31T23:58:49.311Z,8.70
